Terminal Aerodrome Forecast
Issued by NWS Twin Cities, MN

Home | Current Version | Previous Version | Text Only | Print | Product List | Glossary On
Versions: 1 2 3 4 5 6 7 8 9 10 11 12 13 14 15
000
FTUS43 KMPX 220500
TAFSTC
TAF
KSTC 220536Z 2206/2306 14009KT P6SM SCT250
     FM221300 16012G18KT P6SM VCSH SCT015 BKN050
     FM221700 17016G23KT P6SM SCT025 BKN040
     FM230100 16010KT P6SM SCT020 OVC035
      TEMPO 2302/2306 5SM SHRA BKN020=

USA.gov is the U.S. government's official web portal to all federal, state and local government web resources and services.